createdAt,value
2023-11-27T00:01:05.130Z,3.63
2023-11-27T00:03:33.590Z,2.78
2023-11-27T00:06:01.941Z,3.00
2023-11-27T00:08:31.833Z,2.83
2023-11-27T00:11:01.465Z,3.03
2023-11-27T00:13:29.905Z,3.03
2023-11-27T00:15:58.282Z,3.03
2023-11-27T00:18:26.588Z,3.35
2023-11-27T00:20:54.804Z,2.92
2023-11-27T00:23:24.542Z,2.60
2023-11-27T00:25:54.134Z,2.95
2023-11-27T00:28:23.261Z,3.00
2023-11-27T00:30:53.104Z,3.05
2023-11-27T00:33:21.689Z,2.70
2023-11-27T00:35:50.270Z,2.90
2023-11-27T00:38:18.527Z,2.67
2023-11-27T00:40:47.676Z,3.15
2023-11-27T00:43:17.394Z,3.15
2023-11-27T00:45:45.570Z,3.38
2023-11-27T00:48:15.320Z,3.15
2023-11-27T00:50:43.999Z,2.85
2023-11-27T00:53:12.164Z,2.65
2023-11-27T00:55:40.318Z,2.97
2023-11-27T00:58:08.544Z,2.65
2023-11-27T01:00:38.106Z,2.78
2023-11-27T01:03:06.660Z,3.05
2023-11-27T01:05:34.958Z,3.00
2023-11-27T01:08:03.263Z,2.65
2023-11-27T01:10:31.412Z,2.83
2023-11-27T01:12:59.932Z,3.15
2023-11-27T01:15:28.175Z,3.00
2023-11-27T01:17:57.943Z,2.60
2023-11-27T01:20:26.893Z,2.83
2023-11-27T01:22:55.069Z,2.85
2023-11-27T01:25:24.262Z,2.78
2023-11-27T01:27:52.647Z,2.78
2023-11-27T01:30:21.130Z,3.10
2023-11-27T01:32:49.432Z,3.03
2023-11-27T01:35:18.999Z,2.60
2023-11-27T01:37:47.174Z,2.45
2023-11-27T01:40:15.480Z,2.53
2023-11-27T01:42:44.272Z,2.70
2023-11-27T01:45:12.576Z,2.47
2023-11-27T01:47:41.632Z,2.42
2023-11-27T01:50:11.622Z,2.83
2023-11-27T01:52:42.328Z,2.03
2023-11-27T01:55:12.973Z,2.30
2023-11-27T01:57:41.413Z,2.40
2023-11-27T02:00:12.746Z,2.20
2023-11-27T02:02:47.716Z,2.20
2023-11-27T02:05:16.146Z,2.42
2023-11-27T02:07:46.793Z,2.83
2023-11-27T02:10:15.069Z,3.17
2023-11-27T02:12:43.569Z,2.33
2023-11-27T02:15:12.998Z,2.80
2023-11-27T02:17:41.494Z,2.90
2023-11-27T02:20:11.446Z,2.47
2023-11-27T02:22:39.869Z,2.72
2023-11-27T02:25:10.355Z,2.85
2023-11-27T02:27:41.187Z,2.58
2023-11-27T02:30:10.419Z,2.45
2023-11-27T02:32:38.715Z,2.88
2023-11-27T02:35:07.717Z,2.90
2023-11-27T02:37:35.987Z,2.53
2023-11-27T02:40:04.853Z,2.47
2023-11-27T02:42:34.429Z,2.75
2023-11-27T02:45:02.632Z,2.85
2023-11-27T02:47:30.901Z,2.85
2023-11-27T02:49:59.105Z,2.50
2023-11-27T02:52:28.045Z,2.58
2023-11-27T02:54:57.134Z,3.33
2023-11-27T02:57:25.627Z,2.58
2023-11-27T02:59:55.620Z,2.42
2023-11-27T03:02:24.134Z,2.53
2023-11-27T03:04:52.405Z,2.78
2023-11-27T03:07:20.641Z,2.50
2023-11-27T03:09:49.775Z,2.75
2023-11-27T03:12:18.197Z,2.88
2023-11-27T03:14:46.435Z,2.50
2023-11-27T03:17:16.352Z,2.92
2023-11-27T03:19:48.185Z,2.90
2023-11-27T03:22:17.335Z,3.63
2023-11-27T03:24:45.555Z,2.83
2023-11-27T03:27:13.811Z,2.70
2023-11-27T03:29:41.960Z,3.10
2023-11-27T03:32:11.123Z,3.35
2023-11-27T03:34:40.848Z,3.05
2023-11-27T03:37:09.197Z,3.25
2023-11-27T03:39:37.893Z,2.65
2023-11-27T03:42:06.365Z,2.90
2023-11-27T03:44:34.562Z,2.88
2023-11-27T03:47:02.986Z,3.10
2023-11-27T03:49:32.647Z,3.25
2023-11-27T03:52:03.379Z,2.90
2023-11-27T03:54:31.868Z,3.08
2023-11-27T03:57:00.006Z,3.97
2023-11-27T03:59:28.187Z,3.83
2023-11-27T04:01:56.725Z,3.40
2023-11-27T04:04:25.023Z,3.05
2023-11-27T04:06:53.257Z,3.25
2023-11-27T04:09:23.238Z,3.42
2023-11-27T04:11:52.149Z,3.63
2023-11-27T04:14:20.308Z,3.78
2023-11-27T04:16:49.038Z,3.63
2023-11-27T04:19:17.329Z,4.15
2023-11-27T04:21:45.750Z,3.83
2023-11-27T04:24:14.120Z,3.05
2023-11-27T04:26:43.713Z,2.90
2023-11-27T04:29:12.042Z,3.75
2023-11-27T04:31:40.923Z,3.45
2023-11-27T04:34:09.211Z,3.80
2023-11-27T04:36:37.396Z,3.30
2023-11-27T04:39:05.766Z,3.78
2023-11-27T04:41:33.966Z,3.42
2023-11-27T04:44:03.613Z,4.13
2023-11-27T04:46:31.899Z,3.42
2023-11-27T04:49:00.142Z,3.38
2023-11-27T04:51:29.733Z,3.17
2023-11-27T04:53:57.973Z,3.10
2023-11-27T04:56:26.146Z,3.28
2023-11-27T04:58:54.314Z,3.15
2023-11-27T05:01:26.435Z,16.70
2023-11-27T05:03:56.947Z,67.57
2023-11-27T05:06:25.253Z,60.63
2023-11-27T05:08:53.438Z,97.63
2023-11-27T05:11:22.052Z,73.38
2023-11-27T05:13:50.827Z,36.70
2023-11-27T05:16:19.709Z,22.80
2023-11-27T05:18:49.567Z,20.27
2023-11-27T05:21:17.916Z,14.77
2023-11-27T05:23:46.096Z,8.55
2023-11-27T05:26:14.516Z,5.80
2023-11-27T05:28:42.850Z,4.47
2023-11-27T05:31:16.126Z,3.80
2023-11-27T05:33:44.522Z,3.10
2023-11-27T05:36:14.617Z,2.80
2023-11-27T05:38:42.781Z,4.10
2023-11-27T05:41:13.548Z,3.63
2023-11-27T05:43:41.818Z,3.40
2023-11-27T05:46:11.468Z,2.97
2023-11-27T05:48:40.274Z,2.90
2023-11-27T05:51:09.140Z,2.70
2023-11-27T05:53:39.307Z,2.38
2023-11-27T05:56:09.461Z,2.33
2023-11-27T05:58:37.641Z,2.67
2023-11-27T06:01:07.087Z,2.55
2023-11-27T06:03:37.905Z,2.17
2023-11-27T06:06:08.498Z,2.38
2023-11-27T06:08:38.062Z,2.78
2023-11-27T06:11:06.877Z,2.50
2023-11-27T06:13:35.129Z,2.58
2023-11-27T06:16:03.712Z,35.58
2023-11-27T06:18:31.979Z,14.45
2023-11-27T06:21:00.238Z,6.70
2023-11-27T06:23:28.407Z,5.05
2023-11-27T06:25:58.383Z,4.20
2023-11-27T06:28:26.735Z,3.58
2023-11-27T06:30:55.501Z,4.75
2023-11-27T06:33:24.095Z,3.58
2023-11-27T06:35:52.790Z,4.30
2023-11-27T06:38:21.152Z,3.42
2023-11-27T06:40:49.534Z,3.30
2023-11-27T06:43:19.308Z,4.22
2023-11-27T06:45:48.607Z,3.55
2023-11-27T06:48:17.506Z,3.60
2023-11-27T06:50:45.870Z,2.80
2023-11-27T06:53:14.066Z,2.90
2023-11-27T06:55:42.364Z,3.58
2023-11-27T06:58:10.700Z,3.28
2023-11-27T07:00:40.286Z,3.95
2023-11-27T07:03:08.967Z,4.50
2023-11-27T07:05:37.320Z,4.65
2023-11-27T07:08:05.761Z,3.47
2023-11-27T07:10:34.095Z,3.30
2023-11-27T07:13:02.385Z,3.35
2023-11-27T07:15:30.661Z,3.03
2023-11-27T07:18:10.132Z,4.07
2023-11-27T07:20:46.479Z,3.95
2023-11-27T07:23:16.001Z,3.63
2023-11-27T07:25:44.460Z,4.07
2023-11-27T07:28:13.852Z,3.95
2023-11-27T07:30:42.097Z,4.43
2023-11-27T07:33:11.803Z,3.67
2023-11-27T07:35:40.388Z,3.70
2023-11-27T07:38:09.247Z,3.67
2023-11-27T07:40:37.533Z,4.15
2023-11-27T07:43:11.594Z,3.72
2023-11-27T07:45:40.961Z,3.28
2023-11-27T07:48:09.399Z,3.38
2023-11-27T07:50:39.059Z,3.63
2023-11-27T07:53:08.885Z,3.83
2023-11-27T07:55:38.264Z,3.80
2023-11-27T07:58:06.725Z,3.88
2023-11-27T08:00:35.126Z,4.10
2023-11-27T08:03:03.347Z,3.33
2023-11-27T08:05:31.723Z,3.78
2023-11-27T08:08:01.363Z,3.50
2023-11-27T08:10:30.304Z,3.65
2023-11-27T08:12:58.666Z,3.92
2023-11-27T08:15:26.882Z,3.40
2023-11-27T08:17:57.617Z,3.75
2023-11-27T08:20:29.757Z,3.78
2023-11-27T08:23:00.202Z,3.25
2023-11-27T08:25:29.161Z,3.60
2023-11-27T08:27:58.228Z,4.18
2023-11-27T08:30:29.067Z,3.50
2023-11-27T08:32:58.631Z,3.70
2023-11-27T08:35:26.907Z,9.25
2023-11-27T08:37:55.163Z,14.18
2023-11-27T08:40:24.970Z,19.17
2023-11-27T08:42:53.164Z,7.72
2023-11-27T08:45:21.393Z,15.52
2023-11-27T08:47:53.513Z,5.72
2023-11-27T08:50:25.726Z,5.35
2023-11-27T08:52:58.251Z,4.28
2023-11-27T08:55:31.695Z,3.83
2023-11-27T08:58:04.413Z,4.07
2023-11-27T09:00:32.914Z,4.80
2023-11-27T09:03:02.712Z,4.25
2023-11-27T09:05:33.647Z,4.72
2023-11-27T09:08:07.367Z,4.35
2023-11-27T09:10:38.386Z,5.18
2023-11-27T09:13:08.247Z,4.20
2023-11-27T09:15:37.090Z,5.30
2023-11-27T09:18:05.718Z,4.72
2023-11-27T09:20:34.220Z,3.80
2023-11-27T09:23:02.894Z,5.28
2023-11-27T09:25:31.309Z,3.85
2023-11-27T09:28:01.399Z,4.57
2023-11-27T09:30:29.671Z,3.92
2023-11-27T09:32:57.942Z,3.63
2023-11-27T09:35:26.177Z,3.95
2023-11-27T09:37:54.642Z,3.17
2023-11-27T09:40:23.820Z,3.70
2023-11-27T09:42:52.131Z,4.13
2023-11-27T09:45:22.065Z,5.15
2023-11-27T09:47:52.481Z,4.63
2023-11-27T09:50:23.419Z,4.50
2023-11-27T09:53:00.820Z,3.78
2023-11-27T09:55:31.082Z,3.50
2023-11-27T09:58:00.954Z,3.47
2023-11-27T10:00:32.675Z,10.40
2023-11-27T10:03:01.521Z,7.97
2023-11-27T10:05:30.092Z,7.57
2023-11-27T10:07:59.768Z,4.63
2023-11-27T10:10:30.990Z,18.88
2023-11-27T10:13:01.009Z,12.57
2023-11-27T10:15:32.745Z,5.88
2023-11-27T10:18:04.942Z,6.60
2023-11-27T10:20:34.467Z,5.32
2023-11-27T10:23:03.752Z,15.13
2023-11-27T10:25:37.584Z,6.63
2023-11-27T10:28:07.415Z,8.70
2023-11-27T10:30:37.537Z,8.50
2023-11-27T10:33:07.109Z,6.50
2023-11-27T10:35:35.426Z,7.70
2023-11-27T10:38:05.289Z,6.05
2023-11-27T10:40:34.867Z,10.88
2023-11-27T10:43:04.605Z,7.85
2023-11-27T10:45:36.549Z,9.82
2023-11-27T10:50:40.274Z,7.68
2023-11-27T10:53:09.993Z,7.55
2023-11-27T10:55:39.742Z,6.63
2023-11-27T10:58:09.268Z,5.78
2023-11-27T11:00:41.345Z,6.00
2023-11-27T11:03:15.721Z,5.32
2023-11-27T11:05:50.622Z,3.47
2023-11-27T11:08:22.785Z,21.80
2023-11-27T11:10:51.103Z,6.25
2023-11-27T11:13:22.241Z,13.15
2023-11-27T11:15:55.686Z,5.47
2023-11-27T11:18:36.063Z,3.85
2023-11-27T11:21:33.357Z,12.98
2023-11-27T11:24:10.839Z,36.13
2023-11-27T11:26:56.458Z,20.60
2023-11-27T11:29:33.530Z,26.20
2023-11-27T11:32:05.861Z,22.77
2023-11-27T11:34:39.771Z,22.77
2023-11-27T11:37:13.315Z,16.63
2023-11-27T11:39:46.950Z,38.38
2023-11-27T11:42:19.170Z,36.35
2023-11-27T11:45:07.292Z,23.23
2023-11-27T11:47:39.272Z,25.15
2023-11-27T11:50:42.231Z,13.65
2023-11-27T11:53:38.327Z,12.25
2023-11-27T11:56:20.754Z,16.58
2023-11-27T11:58:52.180Z,9.75
2023-11-27T12:01:21.164Z,17.58
2023-11-27T12:03:51.290Z,15.18
2023-11-27T12:06:22.311Z,15.10
2023-11-27T12:08:51.295Z,14.30
2023-11-27T12:11:19.485Z,19.15
2023-11-27T12:13:47.694Z,9.52
2023-11-27T12:16:18.379Z,7.03
2023-11-27T12:18:50.950Z,9.00
2023-11-27T12:21:24.073Z,8.27
2023-11-27T12:23:54.489Z,8.32
2023-11-27T12:26:25.210Z,6.60
2023-11-27T12:28:54.190Z,5.78
2023-11-27T12:31:24.484Z,9.77
2023-11-27T12:33:54.292Z,9.68
2023-11-27T12:36:26.510Z,10.80
2023-11-27T12:38:55.549Z,11.73
2023-11-27T12:41:33.678Z,8.57
2023-11-27T12:44:14.698Z,15.82
2023-11-27T12:46:49.471Z,6.35
2023-11-27T12:49:22.261Z,5.22
2023-11-27T12:51:53.820Z,5.15
2023-11-27T12:54:24.391Z,3.22
2023-11-27T12:56:53.290Z,3.58
2023-11-27T12:59:25.036Z,2.67
2023-11-27T13:01:58.793Z,2.20
2023-11-27T13:04:31.212Z,2.25
2023-11-27T13:07:06.922Z,2.00
2023-11-27T13:09:35.658Z,2.00
2023-11-27T13:12:16.251Z,1.83
2023-11-27T13:14:45.089Z,2.15
2023-11-27T13:17:20.142Z,1.73
2023-11-27T13:19:51.240Z,1.58
2023-11-27T13:22:21.333Z,1.92
2023-11-27T13:24:51.649Z,1.38
2023-11-27T13:27:22.877Z,1.60
2023-11-27T13:29:52.526Z,20.05
2023-11-27T13:32:21.083Z,9.65
2023-11-27T13:34:57.598Z,11.55
2023-11-27T13:37:30.131Z,22.10
2023-11-27T13:40:00.190Z,23.05
2023-11-27T13:42:31.843Z,30.48
2023-11-27T13:47:28.787Z,35.70
2023-11-27T13:49:57.373Z,37.42
2023-11-27T13:52:31.226Z,34.33
2023-11-27T13:55:01.196Z,37.78
2023-11-27T13:57:32.252Z,47.08
2023-11-27T14:00:01.799Z,63.63
2023-11-27T14:02:33.362Z,48.08
2023-11-27T14:05:09.644Z,50.78
2023-11-27T14:07:45.121Z,51.65
2023-11-27T14:10:27.002Z,60.67
2023-11-27T14:13:02.339Z,44.92
2023-11-27T14:15:40.828Z,17.30
2023-11-27T14:18:42.504Z,7.82
2023-11-27T14:21:27.973Z,7.03
2023-11-27T14:23:58.758Z,6.28
2023-11-27T14:26:52.682Z,4.38
2023-11-27T14:29:22.902Z,8.15
2023-11-27T14:31:50.663Z,4.60
2023-11-27T14:34:21.525Z,3.65
2023-11-27T14:36:50.392Z,4.03
2023-11-27T14:39:20.351Z,4.38
2023-11-27T14:41:52.857Z,3.40
2023-11-27T14:44:22.054Z,3.60
2023-11-27T14:46:52.761Z,2.42
2023-11-27T14:49:21.453Z,2.22
2023-11-27T14:51:51.090Z,2.35
2023-11-27T14:54:21.145Z,3.10
2023-11-27T14:56:49.371Z,68.78
2023-11-27T14:59:17.623Z,53.47
2023-11-27T15:01:46.948Z,29.83
2023-11-27T15:04:16.202Z,9.93
2023-11-27T15:06:44.969Z,6.55
2023-11-27T15:09:22.784Z,4.93
2023-11-27T15:11:53.710Z,3.58
2023-11-27T15:14:22.418Z,9.18
2023-11-27T15:16:51.742Z,2.20
2023-11-27T15:19:21.766Z,2.30
2023-11-27T15:21:50.728Z,2.58
2023-11-27T15:24:18.985Z,2.17
2023-11-27T15:26:51.900Z,3.03
2023-11-27T15:29:21.535Z,4.78
2023-11-27T15:31:51.663Z,3.20
2023-11-27T15:34:19.983Z,1.90
2023-11-27T15:36:50.720Z,1.77
2023-11-27T15:39:24.383Z,1.58
2023-11-27T15:41:53.989Z,1.10
2023-11-27T15:44:23.529Z,1.30
2023-11-27T15:46:51.913Z,1.38
2023-11-27T15:49:20.206Z,1.38
2023-11-27T15:51:48.415Z,1.45
2023-11-27T15:54:17.676Z,1.23
2023-11-27T15:56:45.940Z,1.35
2023-11-27T15:59:14.885Z,1.10
2023-11-27T16:01:45.224Z,1.70
2023-11-27T16:04:14.222Z,1.30
2023-11-27T16:06:42.634Z,1.60
2023-11-27T16:09:11.114Z,1.48
2023-11-27T16:11:39.794Z,1.30
2023-11-27T16:14:14.027Z,1.30
2023-11-27T16:16:46.098Z,1.45
2023-11-27T16:21:43.205Z,1.27
2023-11-27T16:24:11.395Z,1.67
2023-11-27T16:26:39.767Z,1.58
2023-11-27T16:29:08.196Z,1.33
2023-11-27T16:31:36.482Z,1.45
2023-11-27T16:34:06.990Z,1.55
2023-11-27T16:36:35.624Z,1.55
2023-11-27T16:39:05.249Z,1.40
2023-11-27T16:41:33.524Z,1.30
2023-11-27T16:44:01.872Z,1.20
2023-11-27T16:46:30.153Z,1.20
2023-11-27T16:48:59.474Z,1.10
2023-11-27T16:51:29.795Z,1.40
2023-11-27T16:53:58.996Z,1.00
2023-11-27T16:56:28.012Z,1.27
2023-11-27T16:58:56.242Z,1.20
2023-11-27T17:01:24.568Z,5.30
2023-11-27T17:03:55.276Z,38.45
2023-11-27T17:06:25.276Z,21.15
2023-11-27T17:08:56.101Z,63.05
2023-11-27T17:11:24.538Z,48.95
2023-11-27T17:13:52.785Z,48.80
2023-11-27T17:16:21.038Z,59.63
2023-11-27T17:18:49.289Z,70.88
2023-11-27T17:21:17.543Z,46.35
2023-11-27T17:23:46.448Z,12.52
2023-11-27T17:26:18.994Z,11.57
2023-11-27T17:28:47.821Z,8.85
2023-11-27T17:31:17.290Z,6.28
2023-11-27T17:33:46.985Z,6.65
2023-11-27T17:36:16.272Z,4.55
2023-11-27T17:38:45.562Z,3.80
2023-11-27T17:41:17.674Z,3.80
2023-11-27T17:43:47.826Z,4.38
2023-11-27T17:46:16.093Z,4.78
2023-11-27T17:48:45.198Z,4.40
2023-11-27T17:51:14.498Z,4.22
2023-11-27T17:53:42.758Z,3.38
2023-11-27T17:56:11.911Z,2.97
2023-11-27T17:58:41.693Z,3.13
2023-11-27T18:01:10.002Z,6.38
2023-11-27T18:03:38.259Z,6.22
2023-11-27T18:06:07.604Z,5.63
2023-11-27T18:08:37.535Z,5.80
2023-11-27T18:11:10.548Z,10.65
2023-11-27T18:13:39.692Z,7.35
2023-11-27T18:16:12.461Z,4.97
2023-11-27T18:18:41.059Z,7.45
2023-11-27T18:21:09.982Z,5.85
2023-11-27T18:23:38.210Z,8.27
2023-11-27T18:26:09.909Z,5.72
2023-11-27T18:28:38.114Z,5.72
2023-11-27T18:31:08.562Z,5.13
2023-11-27T18:33:36.791Z,9.10
2023-11-27T18:36:06.181Z,5.00
2023-11-27T18:38:35.258Z,5.28
2023-11-27T18:41:03.557Z,10.93
2023-11-27T18:43:31.758Z,5.82
2023-11-27T18:45:59.986Z,5.40
2023-11-27T18:48:29.595Z,5.47
2023-11-27T18:50:57.741Z,4.00
2023-11-27T18:53:26.537Z,3.58
2023-11-27T18:55:54.734Z,3.67
2023-11-27T18:58:23.271Z,5.18
2023-11-27T19:00:53.114Z,3.85
2023-11-27T19:03:21.499Z,4.68
2023-11-27T19:05:51.423Z,9.00
2023-11-27T19:08:19.654Z,93.55
2023-11-27T19:10:47.862Z,12.13
2023-11-27T19:13:16.200Z,47.63
2023-11-27T19:15:47.358Z,12.75
2023-11-27T19:18:15.578Z,15.00
2023-11-27T19:20:43.773Z,8.05
2023-11-27T19:23:13.396Z,4.88
2023-11-27T19:25:41.656Z,2.95
2023-11-27T19:28:09.941Z,4.18
2023-11-27T19:30:38.252Z,4.97
2023-11-27T19:33:06.574Z,6.10
2023-11-27T19:35:34.864Z,3.80
2023-11-27T19:38:03.082Z,2.90
2023-11-27T19:40:32.687Z,3.17
2023-11-27T19:43:01.142Z,2.65
2023-11-27T19:45:30.449Z,2.20
2023-11-27T19:47:59.539Z,2.50
2023-11-27T19:50:28.116Z,2.10
2023-11-27T19:52:56.370Z,2.05
2023-11-27T19:55:24.625Z,2.30
2023-11-27T19:57:55.285Z,1.80
2023-11-27T20:00:24.899Z,2.10
2023-11-27T20:02:55.901Z,2.10
2023-11-27T20:05:26.559Z,1.65
2023-11-27T20:07:55.258Z,1.80
2023-11-27T20:10:23.944Z,1.80
2023-11-27T20:12:54.358Z,1.50
2023-11-27T20:15:22.655Z,1.40
2023-11-27T20:17:52.006Z,1.83
2023-11-27T20:20:20.459Z,1.70
2023-11-27T20:22:48.965Z,1.60
2023-11-27T20:25:17.218Z,1.40
2023-11-27T20:27:45.527Z,2.10
2023-11-27T20:30:15.374Z,1.80
2023-11-27T20:32:43.803Z,1.73
2023-11-27T20:35:12.140Z,1.55
2023-11-27T20:37:41.257Z,1.42
2023-11-27T20:40:11.638Z,1.50
2023-11-27T20:42:40.660Z,1.90
2023-11-27T20:45:10.150Z,1.88
2023-11-27T20:47:40.168Z,1.65
2023-11-27T20:50:10.345Z,1.55
2023-11-27T20:52:38.741Z,1.55
2023-11-27T20:55:09.309Z,1.90
2023-11-27T20:57:41.015Z,2.07
2023-11-27T21:00:11.692Z,1.83
2023-11-27T21:02:43.753Z,1.60
2023-11-27T21:05:13.075Z,1.70
2023-11-27T21:07:42.237Z,1.77
2023-11-27T21:10:12.590Z,1.80
2023-11-27T21:12:42.882Z,1.90
2023-11-27T21:15:12.233Z,1.85
2023-11-27T21:17:41.988Z,2.22
2023-11-27T21:20:13.705Z,1.70
2023-11-27T21:22:43.568Z,1.77
2023-11-27T21:25:14.580Z,1.65
2023-11-27T21:27:44.066Z,2.42
2023-11-27T21:30:16.320Z,1.80
2023-11-27T21:32:49.153Z,2.15
2023-11-27T21:35:18.190Z,2.10
2023-11-27T21:37:48.397Z,1.95
2023-11-27T21:40:17.604Z,2.30
2023-11-27T21:42:45.841Z,2.25
2023-11-27T21:45:14.285Z,2.17
2023-11-27T21:47:42.478Z,2.10
2023-11-27T21:50:12.718Z,2.60
2023-11-27T21:52:41.079Z,2.00
2023-11-27T21:55:10.364Z,2.20
2023-11-27T21:57:38.554Z,1.90
2023-11-27T22:00:08.496Z,2.00
2023-11-27T22:02:36.871Z,2.00
2023-11-27T22:05:05.790Z,2.15
2023-11-27T22:07:36.284Z,2.13
2023-11-27T22:10:05.428Z,2.03
2023-11-27T22:12:33.622Z,1.67
2023-11-27T22:15:01.799Z,1.90
2023-11-27T22:17:30.031Z,1.95
2023-11-27T22:19:58.301Z,2.40
2023-11-27T22:22:26.550Z,2.10
2023-11-27T22:24:56.168Z,2.00
2023-11-27T22:27:24.351Z,2.03
2023-11-27T22:29:52.507Z,1.95
2023-11-27T22:32:22.062Z,1.73
2023-11-27T22:34:50.851Z,1.98
2023-11-27T22:37:19.094Z,1.70
2023-11-27T22:39:47.292Z,1.67
2023-11-27T22:42:16.850Z,1.40
2023-11-27T22:44:45.026Z,1.17
2023-11-27T22:47:13.210Z,1.60
2023-11-27T22:49:41.849Z,1.58
2023-11-27T22:52:10.075Z,1.70
2023-11-27T22:54:42.689Z,1.60
2023-11-27T22:57:11.265Z,1.92
2023-11-27T22:59:40.867Z,1.50
2023-11-27T23:02:09.532Z,1.40
2023-11-27T23:04:37.832Z,1.33
2023-11-27T23:07:06.197Z,1.35
2023-11-27T23:09:34.971Z,1.00
2023-11-27T23:12:03.277Z,1.10
2023-11-27T23:14:31.495Z,1.30
2023-11-27T23:17:01.116Z,1.20
2023-11-27T23:19:29.474Z,1.00
2023-11-27T23:21:57.747Z,1.30
2023-11-27T23:24:27.208Z,1.10
2023-11-27T23:26:55.764Z,1.30
2023-11-27T23:29:23.984Z,1.20
2023-11-27T23:31:55.693Z,1.83
2023-11-27T23:34:28.090Z,1.00
2023-11-27T23:36:56.745Z,1.00
2023-11-27T23:39:24.988Z,1.13
2023-11-27T23:41:54.222Z,1.17
2023-11-27T23:44:22.689Z,1.20
2023-11-27T23:46:52.461Z,1.17
2023-11-27T23:49:21.301Z,1.20
2023-11-27T23:51:52.279Z,0.90
2023-11-27T23:54:20.793Z,1.37
2023-11-27T23:56:49.034Z,1.70
2023-11-27T23:59:17.223Z,1.20
